createdAt,value
2023-02-16T00:00:16.543Z,-2.00
2023-02-16T00:00:46.720Z,-2.00
2023-02-16T00:01:17.081Z,-2.00
2023-02-16T00:01:48.534Z,-2.00
2023-02-16T00:02:19.065Z,-2.00
2023-02-16T00:02:50.309Z,-2.00
2023-02-16T00:03:21.625Z,-2.00
2023-02-16T00:03:52.697Z,-2.00
2023-02-16T00:04:23.249Z,-2.00
2023-02-16T00:04:54.424Z,-2.00
2023-02-16T00:05:26.127Z,-2.00
2023-02-16T00:05:56.508Z,-1.90
2023-02-16T00:06:27.669Z,-1.90
2023-02-16T00:06:58.313Z,-1.90
2023-02-16T00:07:29.256Z,-2.00
2023-02-16T00:07:59.938Z,-2.00
2023-02-16T00:08:31.018Z,-2.00
2023-02-16T00:09:02.097Z,-2.00
2023-02-16T00:09:33.124Z,-2.00
2023-02-16T00:10:04.598Z,-2.00
2023-02-16T00:10:35.569Z,-2.00
2023-02-16T00:11:06.131Z,-2.00
2023-02-16T00:11:37.181Z,-2.00
2023-02-16T00:12:08.313Z,-1.90
2023-02-16T00:12:39.280Z,-1.90
2023-02-16T00:13:10.581Z,-1.90
2023-02-16T00:13:41.279Z,-1.90
2023-02-16T00:14:11.906Z,-1.90
2023-02-16T00:14:43.295Z,-1.90
2023-02-16T00:15:15.679Z,-1.90
2023-02-16T00:15:45.352Z,-1.90
2023-02-16T00:16:15.986Z,-1.90
2023-02-16T00:16:46.974Z,-1.90
2023-02-16T00:17:17.919Z,-1.90
2023-02-16T00:17:48.861Z,-1.90
2023-02-16T00:18:20.064Z,-1.90
2023-02-16T00:18:51.034Z,-1.90
2023-02-16T00:19:22.040Z,-1.90
2023-02-16T00:19:53.048Z,-1.90
2023-02-16T00:20:24.744Z,-1.90
2023-02-16T00:20:55.308Z,-1.90
2023-02-16T00:21:26.015Z,-1.90
2023-02-16T00:21:57.166Z,-1.90
2023-02-16T00:22:28.221Z,-1.90
2023-02-16T00:22:58.965Z,-1.90
2023-02-16T00:23:31.191Z,-1.90
2023-02-16T00:24:01.259Z,-1.90
2023-02-16T00:24:33.329Z,-1.90
2023-02-16T00:25:03.660Z,-1.90
2023-02-16T00:25:35.279Z,-1.90
2023-02-16T00:26:05.571Z,-1.90
2023-02-16T00:26:36.059Z,-1.80
2023-02-16T00:27:07.100Z,-1.80
2023-02-16T00:27:38.129Z,-1.80
2023-02-16T00:28:09.102Z,-1.80
2023-02-16T00:28:40.083Z,-1.80
2023-02-16T00:29:11.390Z,-1.80
2023-02-16T00:29:44.691Z,-1.80
2023-02-16T00:30:13.985Z,-1.70
2023-02-16T00:30:44.161Z,-1.70
2023-02-16T00:31:15.564Z,-1.70
2023-02-16T00:31:46.377Z,-1.70
2023-02-16T00:32:17.840Z,-1.70
2023-02-16T00:32:48.465Z,-1.70
2023-02-16T00:33:19.405Z,-1.70
2023-02-16T00:33:50.042Z,-1.70
2023-02-16T00:34:20.962Z,-1.70
2023-02-16T00:34:52.177Z,-1.70
2023-02-16T00:35:23.974Z,-1.60
2023-02-16T00:35:54.044Z,-1.60
2023-02-16T00:36:25.027Z,-1.60
2023-02-16T00:36:56.380Z,-1.60
2023-02-16T00:37:27.031Z,-1.60
2023-02-16T00:37:58.778Z,-1.60
2023-02-16T00:38:29.428Z,-1.60
2023-02-16T00:39:00.654Z,-1.60
2023-02-16T00:39:30.997Z,-1.70
2023-02-16T00:40:02.827Z,-1.70
2023-02-16T00:40:33.488Z,-1.70
2023-02-16T00:41:04.749Z,-1.70
2023-02-16T00:41:35.472Z,-1.70
2023-02-16T00:42:06.802Z,-1.70
2023-02-16T00:42:37.967Z,-1.70
2023-02-16T00:43:08.537Z,-1.70
2023-02-16T00:43:39.645Z,-1.70
2023-02-16T00:44:10.627Z,-1.70
2023-02-16T00:44:41.569Z,-1.70
2023-02-16T00:45:14.084Z,-1.70
2023-02-16T00:45:43.662Z,-1.70
2023-02-16T00:46:14.728Z,-1.70
2023-02-16T00:46:45.534Z,-1.70
2023-02-16T00:47:16.396Z,-1.70
2023-02-16T00:47:47.347Z,-1.70
2023-02-16T00:48:18.425Z,-1.70
2023-02-16T00:48:49.927Z,-1.70
2023-02-16T00:49:20.598Z,-1.70
2023-02-16T00:49:51.492Z,-1.70
2023-02-16T00:50:23.177Z,-1.70
2023-02-16T00:50:53.845Z,-1.70
2023-02-16T00:51:26.179Z,-1.70
2023-02-16T00:51:55.486Z,-1.70
2023-02-16T00:52:26.840Z,-1.70
2023-02-16T00:52:57.006Z,-1.70
2023-02-16T00:53:28.126Z,-1.70
2023-02-16T00:54:00.030Z,-1.70
2023-02-16T00:54:31.962Z,-1.70
2023-02-16T00:55:07.526Z,-1.70
2023-02-16T00:55:32.324Z,-1.70
2023-02-16T00:56:04.885Z,-1.70
2023-02-16T00:56:34.750Z,-1.70
2023-02-16T00:57:06.874Z,-1.70
2023-02-16T00:57:36.449Z,-1.70
2023-02-16T00:58:07.596Z,-1.70
2023-02-16T00:58:38.486Z,-1.70
2023-02-16T00:59:09.267Z,-1.70
2023-02-16T00:59:40.137Z,-1.70
2023-02-16T01:00:14.070Z,-1.70
2023-02-16T01:00:42.103Z,-1.70
2023-02-16T01:01:13.739Z,-1.70
2023-02-16T01:01:44.699Z,-1.70
2023-02-16T01:02:15.567Z,-1.80
2023-02-16T01:02:46.101Z,-1.80
2023-02-16T01:03:17.070Z,-1.80
2023-02-16T01:03:48.724Z,-1.80
2023-02-16T01:04:19.303Z,-1.80
2023-02-16T01:04:50.210Z,-1.80
2023-02-16T01:05:21.737Z,-1.80
2023-02-16T01:05:52.854Z,-1.80
2023-02-16T01:06:23.162Z,-1.80
2023-02-16T01:06:54.705Z,-1.80
2023-02-16T01:07:25.581Z,-1.80
2023-02-16T01:07:56.292Z,-1.80
2023-02-16T01:08:27.180Z,-1.80
2023-02-16T01:08:58.749Z,-1.80
2023-02-16T01:09:29.748Z,-1.80
2023-02-16T01:10:00.180Z,-1.80
2023-02-16T01:10:32.523Z,-1.80
2023-02-16T01:11:02.379Z,-1.80
2023-02-16T01:11:33.629Z,-1.80
2023-02-16T01:12:04.165Z,-1.90
2023-02-16T01:12:35.658Z,-1.90
2023-02-16T01:13:06.709Z,-1.90
2023-02-16T01:13:37.171Z,-1.90
2023-02-16T01:14:08.109Z,-1.90
2023-02-16T01:14:39.411Z,-1.90
2023-02-16T01:15:10.931Z,-1.90
2023-02-16T01:15:41.934Z,-1.90
2023-02-16T01:16:12.658Z,-1.90
2023-02-16T01:16:43.131Z,-1.90
2023-02-16T01:17:14.752Z,-1.90
2023-02-16T01:17:45.428Z,-1.90
2023-02-16T01:18:16.083Z,-1.90
2023-02-16T01:18:47.595Z,-1.90
2023-02-16T01:19:18.089Z,-1.90
2023-02-16T01:19:49.468Z,-1.90
2023-02-16T01:20:20.909Z,-2.00
2023-02-16T01:20:51.344Z,-2.00
2023-02-16T01:21:22.629Z,-2.00
2023-02-16T01:21:53.747Z,-2.00
2023-02-16T01:22:24.770Z,-2.00
2023-02-16T01:22:55.663Z,-2.00
2023-02-16T01:23:26.503Z,-2.00
2023-02-16T01:23:57.525Z,-2.10
2023-02-16T01:24:28.899Z,-2.10
2023-02-16T01:24:59.148Z,-2.10
2023-02-16T01:25:31.190Z,-2.10
2023-02-16T01:26:01.855Z,-2.10
2023-02-16T01:26:34.229Z,-2.10
2023-02-16T01:27:03.642Z,-2.10
2023-02-16T01:27:38.880Z,-2.10
2023-02-16T01:28:05.112Z,-2.10
2023-02-16T01:28:37.382Z,-2.10
2023-02-16T01:29:07.817Z,-2.10
2023-02-16T01:29:38.681Z,-2.10
2023-02-16T01:30:10.549Z,-2.10
2023-02-16T01:30:41.832Z,-2.10
2023-02-16T01:31:11.875Z,-2.10
2023-02-16T01:31:42.497Z,-2.10
2023-02-16T01:32:13.306Z,-2.00
2023-02-16T01:32:44.657Z,-2.00
2023-02-16T01:33:15.760Z,-2.00
2023-02-16T01:33:46.343Z,-2.00
2023-02-16T01:34:17.554Z,-2.00
2023-02-16T01:34:48.746Z,-2.00
2023-02-16T01:35:20.728Z,-2.00
2023-02-16T01:35:50.428Z,-2.00
2023-02-16T01:36:21.206Z,-2.00
2023-02-16T01:36:52.629Z,-2.00
2023-02-16T01:37:23.372Z,-2.00
2023-02-16T01:37:54.458Z,-2.00
2023-02-16T01:38:25.665Z,-2.00
2023-02-16T01:38:56.862Z,-2.00
2023-02-16T01:39:27.629Z,-2.00
2023-02-16T01:39:58.549Z,-2.00
2023-02-16T01:40:30.346Z,-2.00
2023-02-16T01:41:00.704Z,-2.00
2023-02-16T01:41:32.044Z,-2.00
2023-02-16T01:42:02.137Z,-2.00
2023-02-16T01:42:33.263Z,-2.00
2023-02-16T01:43:04.721Z,-2.00
2023-02-16T01:43:35.701Z,-2.00
2023-02-16T01:44:06.144Z,-2.00
2023-02-16T01:44:37.580Z,-1.90
2023-02-16T01:45:09.793Z,-1.90
2023-02-16T01:45:39.562Z,-1.80
2023-02-16T01:46:10.631Z,-1.80
2023-02-16T01:46:41.166Z,-1.80
2023-02-16T01:47:12.656Z,-1.70
2023-02-16T01:47:43.802Z,-1.70
2023-02-16T01:48:14.323Z,-1.70
2023-02-16T01:48:45.244Z,-1.70
2023-02-16T01:49:16.302Z,-1.70
2023-02-16T01:49:48.323Z,-1.70
2023-02-16T01:50:19.228Z,-1.60
2023-02-16T01:50:49.543Z,-1.60
2023-02-16T01:51:20.596Z,-1.60
2023-02-16T01:51:51.784Z,-1.50
2023-02-16T01:52:22.964Z,-1.50
2023-02-16T01:52:53.815Z,-1.50
2023-02-16T01:53:24.222Z,-1.40
2023-02-16T01:53:55.291Z,-1.40
2023-02-16T01:54:26.260Z,-1.50
2023-02-16T01:54:57.940Z,-1.50
2023-02-16T01:55:28.865Z,-1.50
2023-02-16T01:55:59.263Z,-1.50
2023-02-16T01:56:30.664Z,-1.50
2023-02-16T01:57:01.182Z,-1.50
2023-02-16T01:57:32.787Z,-1.50
2023-02-16T01:58:04.763Z,-1.40
2023-02-16T01:58:34.260Z,-1.40
2023-02-16T01:59:06.371Z,-1.40
2023-02-16T01:59:36.261Z,-1.40
2023-02-16T02:00:08.433Z,-1.40
2023-02-16T02:00:38.928Z,-1.30
2023-02-16T02:01:09.301Z,-1.30
2023-02-16T02:01:40.326Z,-1.30
2023-02-16T02:02:11.550Z,-1.30
2023-02-16T02:02:42.816Z,-1.40
2023-02-16T02:03:13.294Z,-1.40
2023-02-16T02:03:44.875Z,-1.40
2023-02-16T02:04:15.302Z,-1.50
2023-02-16T02:04:46.686Z,-1.50
2023-02-16T02:05:21.069Z,-1.50
2023-02-16T02:05:49.036Z,-1.50
2023-02-16T02:06:19.261Z,-1.50
2023-02-16T02:06:50.340Z,-1.50
2023-02-16T02:07:21.563Z,-1.50
2023-02-16T02:07:53.016Z,-1.40
2023-02-16T02:08:24.391Z,-1.40
2023-02-16T02:08:54.222Z,-1.40
2023-02-16T02:09:25.563Z,-1.40
2023-02-16T02:09:56.306Z,-1.40
2023-02-16T02:10:28.144Z,-1.40
2023-02-16T02:10:58.868Z,-1.50
2023-02-16T02:11:29.767Z,-1.50
2023-02-16T02:12:00.677Z,-1.50
2023-02-16T02:12:31.619Z,-1.60
2023-02-16T02:13:03.061Z,-1.60
2023-02-16T02:13:33.306Z,-1.60
2023-02-16T02:14:04.816Z,-1.60
2023-02-16T02:14:36.032Z,-1.60
2023-02-16T02:15:07.731Z,-1.70
2023-02-16T02:15:37.436Z,-1.70
2023-02-16T02:16:08.804Z,-1.70
2023-02-16T02:16:39.847Z,-1.70
2023-02-16T02:17:11.058Z,-1.70
2023-02-16T02:17:41.326Z,-1.70
2023-02-16T02:18:12.727Z,-1.70
2023-02-16T02:18:43.612Z,-1.70
2023-02-16T02:19:14.350Z,-1.70
2023-02-16T02:19:45.589Z,-1.70
2023-02-16T02:20:17.096Z,-1.70
2023-02-16T02:20:47.552Z,-1.70
2023-02-16T02:21:18.730Z,-1.70
2023-02-16T02:21:49.625Z,-1.70
2023-02-16T02:22:20.323Z,-1.70
2023-02-16T02:22:51.661Z,-1.70
2023-02-16T02:23:22.692Z,-1.70
2023-02-16T02:23:53.530Z,-1.70
2023-02-16T02:24:24.924Z,-1.70
2023-02-16T02:24:55.702Z,-1.70
2023-02-16T02:25:26.869Z,-1.70
2023-02-16T02:25:57.463Z,-1.70
2023-02-16T02:26:28.764Z,-1.70
2023-02-16T02:26:59.372Z,-1.70
2023-02-16T02:27:30.465Z,-1.70
2023-02-16T02:28:01.556Z,-1.70
2023-02-16T02:28:32.668Z,-1.70
2023-02-16T02:29:03.397Z,-1.70
2023-02-16T02:29:36.306Z,-1.80
2023-02-16T02:30:06.686Z,-1.80
2023-02-16T02:30:37.697Z,-1.80
2023-02-16T02:31:08.204Z,-1.80
2023-02-16T02:31:38.613Z,-1.80
2023-02-16T02:32:09.776Z,-1.80
2023-02-16T02:32:40.470Z,-1.80
2023-02-16T02:33:11.710Z,-1.80
2023-02-16T02:33:42.367Z,-1.80
2023-02-16T02:34:14.020Z,-1.80
2023-02-16T02:34:44.381Z,-1.70
2023-02-16T02:35:16.151Z,-1.70
2023-02-16T02:35:46.804Z,-1.70
2023-02-16T02:36:18.084Z,-1.70
2023-02-16T02:36:48.745Z,-1.70
2023-02-16T02:37:20.270Z,-1.60
2023-02-16T02:37:50.619Z,-1.60
2023-02-16T02:38:21.550Z,-1.60
2023-02-16T02:38:52.528Z,-1.60
2023-02-16T02:39:23.658Z,-1.60
2023-02-16T02:39:54.449Z,-1.60
2023-02-16T02:40:26.370Z,-1.60
2023-02-16T02:40:56.700Z,-1.50
2023-02-16T02:41:27.726Z,-1.50
2023-02-16T02:41:58.764Z,-1.50
2023-02-16T02:42:29.699Z,-1.50
2023-02-16T02:43:00.604Z,-1.50
2023-02-16T02:43:31.784Z,-1.50
2023-02-16T02:44:02.990Z,-1.50
2023-02-16T02:44:33.702Z,-1.50
2023-02-16T02:45:06.052Z,-1.40
2023-02-16T02:45:35.890Z,-1.40
2023-02-16T02:46:06.949Z,-1.40
2023-02-16T02:46:37.537Z,-1.40
2023-02-16T02:47:08.830Z,-1.40
2023-02-16T02:47:39.834Z,-1.50
2023-02-16T02:48:10.433Z,-1.50
2023-02-16T02:48:41.461Z,-1.50
2023-02-16T02:49:12.459Z,-1.50
2023-02-16T02:49:43.691Z,-1.50
2023-02-16T02:50:15.173Z,-1.60
2023-02-16T02:50:45.642Z,-1.60
2023-02-16T02:51:16.420Z,-1.60
2023-02-16T02:51:47.467Z,-1.70
2023-02-16T02:52:18.519Z,-1.70
2023-02-16T02:52:49.429Z,-1.70
2023-02-16T02:53:20.539Z,-1.70
2023-02-16T02:53:51.580Z,-1.80
2023-02-16T02:54:22.590Z,-1.80
2023-02-16T02:54:54.026Z,-1.80
2023-02-16T02:55:25.103Z,-1.80
2023-02-16T02:55:56.132Z,-1.90
2023-02-16T02:56:27.247Z,-1.90
2023-02-16T02:56:57.494Z,-2.00
2023-02-16T02:57:28.832Z,-2.00
2023-02-16T02:57:59.471Z,-2.00
2023-02-16T02:58:30.514Z,-2.10
2023-02-16T02:59:01.820Z,-2.10
2023-02-16T02:59:32.792Z,-2.10
2023-02-16T03:00:04.774Z,-2.10
2023-02-16T03:00:34.608Z,-2.00
2023-02-16T03:01:06.875Z,-1.90
2023-02-16T03:01:36.651Z,-1.90
2023-02-16T03:02:08.683Z,-1.90
2023-02-16T03:02:38.519Z,-2.00
2023-02-16T03:03:09.896Z,-2.00
2023-02-16T03:03:40.492Z,-2.00
2023-02-16T03:04:11.539Z,-2.00
2023-02-16T03:04:42.491Z,-2.10
2023-02-16T03:05:14.388Z,-2.10
2023-02-16T03:05:45.187Z,-2.10
2023-02-16T03:06:15.499Z,-2.10
2023-02-16T03:06:47.186Z,-2.10
2023-02-16T03:07:17.510Z,-2.10
2023-02-16T03:07:48.504Z,-2.10
2023-02-16T03:08:19.591Z,-2.10
2023-02-16T03:08:50.571Z,-2.10
2023-02-16T03:09:21.541Z,-2.10
2023-02-16T03:09:52.566Z,-2.10
2023-02-16T03:10:24.325Z,-2.10
2023-02-16T03:10:54.503Z,-2.10
2023-02-16T03:11:25.740Z,-2.10
2023-02-16T03:11:56.511Z,-2.20
2023-02-16T03:12:27.820Z,-2.20
2023-02-16T03:12:58.791Z,-2.20
2023-02-16T03:13:29.524Z,-2.20
2023-02-16T03:14:00.798Z,-2.20
2023-02-16T03:14:31.651Z,-2.20
2023-02-16T03:15:03.511Z,-2.20
2023-02-16T03:15:33.925Z,-2.20
2023-02-16T03:16:04.851Z,-2.20
2023-02-16T03:16:35.746Z,-2.20
2023-02-16T03:17:07.151Z,-2.10
2023-02-16T03:17:37.939Z,-2.10
2023-02-16T03:18:08.750Z,-2.00
2023-02-16T03:18:39.698Z,-2.00
2023-02-16T03:19:10.628Z,-2.00
2023-02-16T03:19:41.885Z,-2.00
2023-02-16T03:20:13.513Z,-2.00
2023-02-16T03:20:43.730Z,-2.10
2023-02-16T03:21:14.534Z,-2.10
2023-02-16T03:21:45.954Z,-2.10
2023-02-16T03:22:16.618Z,-2.10
2023-02-16T03:22:47.580Z,-2.20
2023-02-16T03:23:18.538Z,-2.20
2023-02-16T03:23:49.529Z,-2.20
2023-02-16T03:24:20.756Z,-2.20
2023-02-16T03:24:51.840Z,-2.20
2023-02-16T03:25:23.153Z,-2.30
2023-02-16T03:25:53.687Z,-2.30
2023-02-16T03:26:24.818Z,-2.30
2023-02-16T03:26:55.897Z,-2.30
2023-02-16T03:27:26.912Z,-2.30
2023-02-16T03:27:57.577Z,-2.30
2023-02-16T03:28:29.165Z,-2.40
2023-02-16T03:28:59.960Z,-2.40
2023-02-16T03:29:30.841Z,-2.40
2023-02-16T03:30:02.428Z,-2.40
2023-02-16T03:30:33.188Z,-2.40
2023-02-16T03:31:04.315Z,-2.30
2023-02-16T03:31:34.794Z,-2.30
2023-02-16T03:32:05.699Z,-2.30
2023-02-16T03:32:37.991Z,-2.30
2023-02-16T03:33:07.737Z,-2.30
2023-02-16T03:33:39.104Z,-2.30
2023-02-16T03:34:09.913Z,-2.40
2023-02-16T03:34:42.461Z,-2.40
2023-02-16T03:35:16.759Z,-2.40
2023-02-16T03:35:45.660Z,-2.40
2023-02-16T03:36:17.706Z,-2.40
2023-02-16T03:36:46.843Z,-2.40
2023-02-16T03:37:15.649Z,-2.40
2023-02-16T03:37:46.612Z,-2.40
2023-02-16T03:38:17.660Z,-2.40
2023-02-16T03:38:48.753Z,-2.40
2023-02-16T03:39:19.881Z,-2.40
2023-02-16T03:39:50.865Z,-2.40
2023-02-16T03:40:22.348Z,-2.40
2023-02-16T03:40:52.741Z,-2.40
2023-02-16T03:41:23.611Z,-2.40
2023-02-16T03:41:54.925Z,-2.40
2023-02-16T03:42:25.591Z,-2.50
2023-02-16T03:42:57.000Z,-2.50
2023-02-16T03:43:27.835Z,-2.50
2023-02-16T03:43:58.587Z,-2.50
2023-02-16T03:44:29.707Z,-2.50
2023-02-16T03:45:01.614Z,-2.50
2023-02-16T03:45:32.212Z,-2.50
2023-02-16T03:46:02.691Z,-2.40
2023-02-16T03:46:34.851Z,-2.40
2023-02-16T03:47:04.599Z,-2.40
2023-02-16T03:47:35.976Z,-2.50
2023-02-16T03:48:06.706Z,-2.50
2023-02-16T03:48:37.898Z,-2.50
2023-02-16T03:49:09.055Z,-2.50
2023-02-16T03:49:40.014Z,-2.50
2023-02-16T03:50:11.696Z,-2.40
2023-02-16T03:50:41.980Z,-2.40
2023-02-16T03:51:13.016Z,-2.40
2023-02-16T03:51:43.926Z,-2.40
2023-02-16T03:52:14.988Z,-2.40
2023-02-16T03:52:46.008Z,-2.40
2023-02-16T03:53:18.303Z,-2.50
2023-02-16T03:53:48.063Z,-2.40
2023-02-16T03:54:19.091Z,-2.40
2023-02-16T03:54:50.003Z,-2.40
2023-02-16T03:55:21.426Z,-2.50
2023-02-16T03:55:51.700Z,-2.50
2023-02-16T03:56:23.009Z,-2.50
2023-02-16T03:56:53.645Z,-2.50
2023-02-16T03:57:25.364Z,-2.50
2023-02-16T03:57:55.907Z,-2.50
2023-02-16T03:58:27.024Z,-2.50
2023-02-16T03:58:57.681Z,-2.60
2023-02-16T03:59:28.868Z,-2.60
2023-02-16T03:59:59.946Z,-2.60
2023-02-16T04:00:32.178Z,-2.60
2023-02-16T04:01:02.627Z,-2.60
2023-02-16T04:01:33.124Z,-2.60
2023-02-16T04:02:03.744Z,-2.60
2023-02-16T04:02:34.989Z,-2.60
2023-02-16T04:03:05.731Z,-2.60
2023-02-16T04:03:36.690Z,-2.60
2023-02-16T04:04:09.185Z,-2.60
2023-02-16T04:04:38.926Z,-2.60
2023-02-16T04:05:11.466Z,-2.60
2023-02-16T04:05:41.203Z,-2.60
2023-02-16T04:06:11.961Z,-2.60
2023-02-16T04:06:42.710Z,-2.60
2023-02-16T04:07:13.709Z,-2.60
2023-02-16T04:07:44.767Z,-2.60
2023-02-16T04:08:15.903Z,-2.60
2023-02-16T04:08:46.844Z,-2.60
2023-02-16T04:09:17.762Z,-2.50
2023-02-16T04:09:49.061Z,-2.40
2023-02-16T04:10:20.606Z,-2.40
2023-02-16T04:10:50.730Z,-2.40
2023-02-16T04:11:22.122Z,-2.40
2023-02-16T04:11:53.123Z,-2.40
2023-02-16T04:12:24.109Z,-2.40
2023-02-16T04:12:55.064Z,-2.40
2023-02-16T04:13:26.066Z,-2.40
2023-02-16T04:13:57.074Z,-2.40
2023-02-16T04:14:28.125Z,-2.40
2023-02-16T04:14:59.181Z,-2.40
2023-02-16T04:15:31.282Z,-2.40
2023-02-16T04:16:00.669Z,-2.40
2023-02-16T04:16:31.908Z,-2.50
2023-02-16T04:17:03.092Z,-2.50
2023-02-16T04:17:33.862Z,-2.50
2023-02-16T04:18:05.030Z,-2.60
2023-02-16T04:18:35.796Z,-2.60
2023-02-16T04:19:06.830Z,-2.60
2023-02-16T04:19:38.067Z,-2.60
2023-02-16T04:20:09.247Z,-2.60
2023-02-16T04:20:39.663Z,-2.60
2023-02-16T04:21:10.791Z,-2.60
2023-02-16T04:21:41.857Z,-2.60
2023-02-16T04:22:12.923Z,-2.50
2023-02-16T04:22:44.060Z,-2.50
2023-02-16T04:23:15.142Z,-2.50
2023-02-16T04:23:46.118Z,-2.50
2023-02-16T04:24:16.773Z,-2.50
2023-02-16T04:24:47.630Z,-2.40
2023-02-16T04:25:20.206Z,-2.40
2023-02-16T04:25:50.164Z,-2.30
2023-02-16T04:26:21.078Z,-2.30
2023-02-16T04:26:51.751Z,-2.30
2023-02-16T04:27:23.141Z,-2.30
2023-02-16T04:27:54.259Z,-2.20
2023-02-16T04:28:25.294Z,-2.20
2023-02-16T04:28:56.139Z,-2.20
2023-02-16T04:29:26.967Z,-2.20
2023-02-16T04:29:57.756Z,-2.20
2023-02-16T04:30:30.345Z,-2.10
2023-02-16T04:31:00.319Z,-1.90
2023-02-16T04:31:31.303Z,-1.90
2023-02-16T04:32:01.992Z,-1.90
2023-02-16T04:32:33.006Z,-1.80
2023-02-16T04:33:03.689Z,-1.70
2023-02-16T04:33:34.760Z,-1.60
2023-02-16T04:34:06.041Z,-1.50
2023-02-16T04:34:37.200Z,-1.40
2023-02-16T04:35:08.139Z,-1.40
2023-02-16T04:35:40.026Z,-1.40
2023-02-16T04:36:10.110Z,-1.40
2023-02-16T04:36:40.979Z,-1.40
2023-02-16T04:37:11.914Z,-1.50
2023-02-16T04:37:43.044Z,-1.50
2023-02-16T04:38:13.982Z,-1.50
2023-02-16T04:38:44.935Z,-1.60
2023-02-16T04:39:15.925Z,-1.70
2023-02-16T04:39:46.997Z,-1.80
2023-02-16T04:40:18.656Z,-1.80
2023-02-16T04:40:49.011Z,-1.80
2023-02-16T04:41:20.587Z,-1.90
2023-02-16T04:41:50.778Z,-1.90
2023-02-16T04:42:22.542Z,-2.00
2023-02-16T04:42:53.352Z,-2.00
2023-02-16T04:43:24.106Z,-2.10
2023-02-16T04:43:54.984Z,-2.10
2023-02-16T04:44:26.107Z,-2.10
2023-02-16T04:44:57.060Z,-2.10
2023-02-16T04:45:29.345Z,-2.10
2023-02-16T04:45:59.339Z,-2.10
2023-02-16T04:46:30.544Z,-2.10
2023-02-16T04:47:00.781Z,-2.00
2023-02-16T04:47:31.865Z,-2.00
2023-02-16T04:48:02.882Z,-2.00
2023-02-16T04:48:34.826Z,-2.00
2023-02-16T04:49:05.169Z,-2.00
2023-02-16T04:49:36.574Z,-2.00
2023-02-16T04:50:07.932Z,-2.00
2023-02-16T04:50:38.127Z,-2.00
2023-02-16T04:51:09.063Z,-2.00
2023-02-16T04:51:40.218Z,-2.10
2023-02-16T04:52:10.848Z,-2.10
2023-02-16T04:52:41.865Z,-2.10
2023-02-16T04:53:13.319Z,-2.10
2023-02-16T04:53:43.976Z,-2.10
2023-02-16T04:54:15.134Z,-2.10
2023-02-16T04:54:45.934Z,-2.10
2023-02-16T04:55:18.029Z,-2.10
2023-02-16T04:55:48.101Z,-2.10
2023-02-16T04:56:19.280Z,-2.10
2023-02-16T04:56:50.269Z,-2.10
2023-02-16T04:57:21.098Z,-2.10
2023-02-16T04:57:52.013Z,-2.10
2023-02-16T04:58:22.908Z,-1.90
2023-02-16T04:58:54.377Z,-1.90
2023-02-16T04:59:25.140Z,-1.70
2023-02-16T04:59:56.158Z,-1.50
2023-02-16T05:00:28.541Z,-1.50
2023-02-16T05:00:58.246Z,-1.40
2023-02-16T05:01:29.160Z,-1.40
2023-02-16T05:02:00.268Z,-1.30
2023-02-16T05:02:31.181Z,-1.30
2023-02-16T05:03:02.266Z,-1.30
2023-02-16T05:03:33.164Z,-1.20
2023-02-16T05:04:03.937Z,-1.10
2023-02-16T05:04:34.947Z,-1.10
2023-02-16T05:05:06.857Z,-1.10
2023-02-16T05:05:37.180Z,-1.10
2023-02-16T05:06:08.229Z,-1.10
2023-02-16T05:06:39.312Z,-1.10
2023-02-16T05:07:11.452Z,-1.10
2023-02-16T05:07:41.307Z,-1.10
2023-02-16T05:08:13.701Z,-1.10
2023-02-16T05:08:43.506Z,-1.10
2023-02-16T05:09:15.466Z,-1.20
2023-02-16T05:09:45.305Z,-1.20
2023-02-16T05:10:16.290Z,-1.20
2023-02-16T05:10:46.979Z,-1.20
2023-02-16T05:11:17.880Z,-1.10
2023-02-16T05:11:49.038Z,-1.10
2023-02-16T05:12:19.977Z,-1.10
2023-02-16T05:12:51.125Z,-1.10
2023-02-16T05:13:21.936Z,-1.10
2023-02-16T05:13:53.466Z,-1.20
2023-02-16T05:14:24.274Z,-1.20
2023-02-16T05:14:55.165Z,-1.20
2023-02-16T05:15:27.052Z,-1.20
2023-02-16T05:15:57.364Z,-1.20
2023-02-16T05:16:28.250Z,-1.20
2023-02-16T05:16:58.980Z,-1.20
2023-02-16T05:17:29.951Z,-1.20
2023-02-16T05:18:01.231Z,-1.20
2023-02-16T05:18:31.889Z,-1.30
2023-02-16T05:19:03.225Z,-1.30
2023-02-16T05:19:34.265Z,-1.40
2023-02-16T05:20:05.453Z,-1.40
2023-02-16T05:20:36.598Z,-1.40
2023-02-16T05:21:07.042Z,-1.40
2023-02-16T05:21:38.166Z,-1.40
2023-02-16T05:22:09.426Z,-1.40
2023-02-16T05:22:40.257Z,-1.40
2023-02-16T05:23:11.346Z,-1.40
2023-02-16T05:23:42.414Z,-1.50
2023-02-16T05:24:14.016Z,-1.50
2023-02-16T05:24:44.512Z,-1.50
2023-02-16T05:25:16.263Z,-1.50
2023-02-16T05:25:46.894Z,-1.40
2023-02-16T05:26:17.264Z,-1.40
2023-02-16T05:26:48.630Z,-1.20
2023-02-16T05:27:19.285Z,-1.10
2023-02-16T05:27:50.339Z,-1.10
2023-02-16T05:28:21.519Z,-1.10
2023-02-16T05:28:52.083Z,-1.00
2023-02-16T05:29:23.389Z,-1.00
2023-02-16T05:29:54.020Z,-.90
2023-02-16T05:30:26.337Z,-.90
2023-02-16T05:30:56.179Z,-.90
2023-02-16T05:31:27.294Z,-.90
2023-02-16T05:31:58.820Z,-1.00
2023-02-16T05:32:29.057Z,-1.00
2023-02-16T05:33:00.733Z,-1.00
2023-02-16T05:33:31.255Z,-1.00
2023-02-16T05:34:02.421Z,-.90
2023-02-16T05:34:33.420Z,-.90
2023-02-16T05:35:04.307Z,-.80
2023-02-16T05:35:36.114Z,-.80
2023-02-16T05:36:06.665Z,-.70
2023-02-16T05:36:37.011Z,-.70
2023-02-16T05:37:08.574Z,-.70
2023-02-16T05:37:42.331Z,-.70
2023-02-16T05:38:11.481Z,-.80
2023-02-16T05:38:42.520Z,-.90
2023-02-16T05:39:12.337Z,-.90
2023-02-16T05:39:43.408Z,-.90
2023-02-16T05:40:14.992Z,-1.00
2023-02-16T05:40:45.043Z,-1.00
2023-02-16T05:41:16.121Z,-1.10
2023-02-16T05:41:47.203Z,-1.10
2023-02-16T05:42:18.631Z,-1.10
2023-02-16T05:42:49.180Z,-1.10
2023-02-16T05:43:20.024Z,-1.10
2023-02-16T05:43:51.322Z,-1.10
2023-02-16T05:44:22.060Z,-1.20
2023-02-16T05:44:53.686Z,-1.20
2023-02-16T05:45:25.745Z,-1.20
2023-02-16T05:45:55.153Z,-1.20
2023-02-16T05:46:26.375Z,-1.20
2023-02-16T05:46:57.274Z,-1.20
2023-02-16T05:47:28.193Z,-1.10
2023-02-16T05:47:59.431Z,-1.00
2023-02-16T05:48:30.447Z,-1.00
2023-02-16T05:49:01.365Z,-.90
2023-02-16T05:49:32.075Z,-.90
2023-02-16T05:50:03.412Z,-.90
2023-02-16T05:50:34.542Z,-.90
2023-02-16T05:51:05.606Z,-.90
2023-02-16T05:51:36.573Z,-1.00
2023-02-16T05:52:07.574Z,-1.00
2023-02-16T05:52:38.452Z,-1.00
2023-02-16T05:53:09.099Z,-1.00
2023-02-16T05:53:40.224Z,-1.00
2023-02-16T05:54:11.272Z,-.90
2023-02-16T05:54:42.085Z,-.90
2023-02-16T05:55:13.816Z,-.80
2023-02-16T05:55:44.311Z,-.80
2023-02-16T05:56:15.925Z,-.80
2023-02-16T05:56:46.237Z,-.70
2023-02-16T05:57:17.824Z,-.70
2023-02-16T05:57:48.391Z,-.70
2023-02-16T05:58:19.956Z,-.70
2023-02-16T05:58:50.452Z,-.70
2023-02-16T05:59:21.582Z,-.70
2023-02-16T05:59:52.230Z,-.80
2023-02-16T06:00:24.823Z,-.80
2023-02-16T06:00:54.267Z,-.80
2023-02-16T06:01:25.307Z,-.80
2023-02-16T06:01:56.426Z,-.80
2023-02-16T06:02:27.811Z,-.80
2023-02-16T06:02:58.158Z,-.80
2023-02-16T06:03:29.560Z,-.80
2023-02-16T06:04:00.306Z,-.80
2023-02-16T06:04:31.582Z,-.80
2023-02-16T06:05:02.610Z,-.80
2023-02-16T06:05:33.427Z,-.80
2023-02-16T06:06:04.471Z,-.80
2023-02-16T06:06:35.484Z,-.80
2023-02-16T06:07:06.754Z,-.80
2023-02-16T06:07:37.176Z,-.80
2023-02-16T06:08:08.493Z,-.80
2023-02-16T06:08:39.705Z,-.80
2023-02-16T06:09:10.414Z,-.90
2023-02-16T06:09:41.647Z,-.90
2023-02-16T06:10:15.773Z,-.90
2023-02-16T06:10:43.446Z,-.90
2023-02-16T06:11:15.766Z,-.90
2023-02-16T06:11:45.388Z,-1.00
2023-02-16T06:12:16.225Z,-1.00
2023-02-16T06:12:48.468Z,-1.00
2023-02-16T06:13:18.137Z,-1.10
2023-02-16T06:13:49.526Z,-1.10
2023-02-16T06:14:20.543Z,-1.20
2023-02-16T06:14:52.952Z,-1.20
2023-02-16T06:15:24.180Z,-1.20
2023-02-16T06:15:53.761Z,-1.10
2023-02-16T06:16:24.586Z,-1.10
2023-02-16T06:16:55.643Z,-1.10
2023-02-16T06:17:26.552Z,-1.10
2023-02-16T06:17:57.548Z,-1.10
2023-02-16T06:18:28.485Z,-1.20
2023-02-16T06:18:59.234Z,-1.30
2023-02-16T06:19:30.400Z,-1.40
2023-02-16T06:20:02.089Z,-1.40
2023-02-16T06:20:32.155Z,-1.50
2023-02-16T06:21:03.941Z,-1.50
2023-02-16T06:21:34.410Z,-1.50
2023-02-16T06:22:05.349Z,-1.60
2023-02-16T06:22:36.513Z,-1.60
2023-02-16T06:23:07.776Z,-1.60
2023-02-16T06:23:38.250Z,-1.70
2023-02-16T06:24:09.218Z,-1.70
2023-02-16T06:24:40.464Z,-1.70
2023-02-16T06:25:12.353Z,-1.70
2023-02-16T06:25:42.879Z,-1.70
2023-02-16T06:26:13.670Z,-1.70
2023-02-16T06:26:44.559Z,-1.70
2023-02-16T06:27:15.471Z,-1.70
2023-02-16T06:27:46.736Z,-1.70
2023-02-16T06:28:18.984Z,-1.70
2023-02-16T06:28:48.629Z,-1.70
2023-02-16T06:29:19.868Z,-1.70
2023-02-16T06:29:50.577Z,-1.70
2023-02-16T06:30:22.756Z,-1.70
2023-02-16T06:30:52.410Z,-1.70
2023-02-16T06:31:23.787Z,-1.70
2023-02-16T06:31:54.723Z,-1.60
2023-02-16T06:32:25.788Z,-1.60
2023-02-16T06:32:56.611Z,-1.50
2023-02-16T06:33:27.389Z,-1.50
2023-02-16T06:33:58.396Z,-1.50
2023-02-16T06:34:29.825Z,-1.60
2023-02-16T06:35:01.301Z,-1.60
2023-02-16T06:35:31.854Z,-1.60
2023-02-16T06:36:02.706Z,-1.70
2023-02-16T06:36:33.654Z,-1.70
2023-02-16T06:37:04.667Z,-1.70
2023-02-16T06:37:35.842Z,-1.80
2023-02-16T06:38:06.694Z,-1.80
2023-02-16T06:38:37.814Z,-1.90
2023-02-16T06:39:08.875Z,-1.90
2023-02-16T06:39:39.670Z,-1.90
2023-02-16T06:40:11.109Z,-1.80